Terminal Aerodrome Forecast
Issued by NWS Miami, FL

Home | Current Version | Previous Version | Text Only | Print | Product List | Glossary On
Versions: 1 2 3 4 5 6 7 8 9 10 11 12 13 14 15 16 17 18 19 20 21 22 23 24
000
FTUS42 KMFL 230858 AAA
TAFPBI
TAF AMD
KPBI 230858Z 2309/2406 13008KT P6SM SCT025 SCT030
     FM231400 12012KT P6SM SCT030
     FM231800 13012G18KT P6SM BKN100
     FM232000 13012KT P6SM SCT250=

USA.gov is the U.S. government's official web portal to all federal, state and local government web resources and services.